Time;durP1;ratioP1;P1;durP2;ratioP2;P2;SDS_P1;SDS_P2;PMS_P1;PMS_P2;Temp;Humidity;BMP_temperature;BMP_pressure;BME280_temperature;BME280_humidity;BME280_pressure;Samples;Min_cycle;Max_cycle;Signal;HPM_P1;HPM_P2
2023/10/06 00:00:10;;;;;;;1.00;0.73;;;15.30;67.90;;;;;;5035707;28;20052;-70
2023/10/06 00:02:36;;;;;;;0.90;0.57;;;15.30;68.10;;;;;;5034185;28;20045;-70
2023/10/06 00:05:03;;;;;;;1.17;0.82;;;15.30;67.60;;;;;;5035453;28;20475;-70
2023/10/06 00:07:29;;;;;;;3.50;0.82;;;15.30;68.10;;;;;;5034016;28;20138;-71
2023/10/06 00:09:55;;;;;;;0.40;0.40;;;15.20;68.00;;;;;;5017789;28;20399;-71
2023/10/06 00:12:25;;;;;;;0.40;0.40;;;15.20;68.20;;;;;;5034527;28;20072;-70
2023/10/06 00:14:51;;;;;;;0.55;0.35;;;15.10;68.60;;;;;;5018362;28;20041;-70
2023/10/06 00:17:17;;;;;;;;;;;15.10;68.50;;;;;;5035786;28;20367;-70
2023/10/06 00:19:45;;;;;;;1.23;1.00;;;15.10;68.10;;;;;;5017507;28;20008;-71
2023/10/06 00:24:43;;;;;;;0.73;0.32;;;15.30;67.90;;;;;;5035657;28;20048;-71
2023/10/06 00:27:11;;;;;;;1.27;0.90;;;15.30;67.80;;;;;;5017754;28;20643;-70
2023/10/06 00:29:57;;;;;;;2.45;1.42;;;15.30;67.50;;;;;;5017502;28;20038;-71
2023/10/06 00:35:10;;;;;;;0.68;0.50;;;15.30;67.00;;;;;;5019567;28;20049;-70
2023/10/06 00:40:25;;;;;;;0.20;0.20;;;15.30;67.40;;;;;;5018903;28;20052;-71
2023/10/06 00:45:39;;;;;;;0.40;0.30;;;15.30;67.50;;;;;;5018985;28;20038;-70
2023/10/06 00:48:13;;;;;;;1.52;0.82;;;15.30;67.60;;;;;;5034788;28;20072;-71
2023/10/06 00:50:41;;;;;;;0.43;0.20;;;15.40;67.50;;;;;;5032415;28;20426;-71
2023/10/06 00:53:10;;;;;;;0.25;0.25;;;15.30;67.60;;;;;;5016996;28;20034;-71
2023/10/06 00:55:39;;;;;;;1.80;1.10;;;15.30;67.60;;;;;;5016377;28;20033;-71
2023/10/06 00:58:10;;;;;;;1.08;0.50;;;15.30;67.60;;;;;;5032540;28;20034;-71
2023/10/06 01:00:38;;;;;;;0.75;0.40;;;15.30;67.60;;;;;;5032347;28;20181;-70
2023/10/06 01:05:51;;;;;;;3.00;1.27;;;15.30;67.90;;;;;;5033836;28;20036;-70
2023/10/06 01:08:17;;;;;;;0.38;0.38;;;15.30;68.10;;;;;;5033000;28;20490;-71
2023/10/06 01:10:43;;;;;;;;;;;15.30;68.10;;;;;;5033909;28;20049;-70
2023/10/06 01:15:56;;;;;;;1.00;0.80;;;15.30;67.90;;;;;;5018762;28;20040;-71
2023/10/06 01:18:27;;;;;;;0.60;0.40;;;15.30;68.00;;;;;;5034170;28;20042;-71
2023/10/06 01:20:53;;;;;;;0.30;0.30;;;15.30;68.10;;;;;;5033140;28;20057;-71
2023/10/06 01:23:21;;;;;;;0.10;0.10;;;15.30;68.20;;;;;;5016156;28;20061;-70
2023/10/06 01:25:53;;;;;;;0.65;0.20;;;15.30;68.10;;;;;;5032280;28;20030;-70
2023/10/06 01:28:23;;;;;;;0.15;0.10;;;15.30;68.10;;;;;;5034224;28;20387;-71
2023/10/06 01:33:34;;;;;;;2.80;1.20;;;15.30;67.90;;;;;;5032963;28;20417;-71
2023/10/06 01:36:01;;;;;;;;;;;15.30;68.00;;;;;;5033916;28;20802;-70
2023/10/06 01:38:29;;;;;;;0.20;0.20;;;15.30;67.90;;;;;;5033855;28;20007;-71
2023/10/06 01:40:56;;;;;;;1.55;0.47;;;15.30;67.90;;;;;;4999103;28;20076;-71
2023/10/06 01:43:29;;;;;;;0.43;0.43;;;15.30;68.00;;;;;;5016378;28;20095;-71
2023/10/06 01:45:55;;;;;;;1.17;0.52;;;15.30;68.10;;;;;;5033125;28;20092;-71
2023/10/06 01:50:55;;;;;;;0.20;0.20;;;15.30;68.20;;;;;;5031524;28;20041;-71
2023/10/06 01:53:21;;;;;;;0.20;0.20;;;15.30;67.60;;;;;;5015607;28;20506;-71
2023/10/06 01:56:07;;;;;;;0.43;0.40;;;15.30;68.30;;;;;;5031802;28;20076;-70
2023/10/06 01:58:35;;;;;;;0.20;0.20;;;15.30;68.30;;;;;;5033609;28;20191;-71
2023/10/06 02:01:05;;;;;;;0.77;0.40;;;15.30;68.10;;;;;;5014785;28;20096;-71
2023/10/06 02:03:37;;;;;;;1.15;0.47;;;15.30;68.30;;;;;;5015644;28;20038;-71
2023/10/06 02:06:04;;;;;;;0.30;0.30;;;15.30;68.30;;;;;;5032690;28;20040;-70
2023/10/06 02:08:31;;;;;;;;;;;15.30;68.50;;;;;;5033930;28;20053;-71
2023/10/06 02:11:01;;;;;;;;;;;15.30;68.40;;;;;;5015202;28;19917;-71
2023/10/06 02:13:29;;;;;;;0.57;0.50;;;15.20;68.20;;;;;;5033284;28;19921;-71
2023/10/06 02:15:58;;;;;;;0.35;0.28;;;15.20;68.40;;;;;;4998776;28;20053;-71
2023/10/06 02:18:36;;;;;;;0.20;0.17;;;15.20;68.50;;;;;;5015651;28;20044;-70
2023/10/06 02:24:08;;;;;;;2.00;0.20;;;15.20;69.00;;;;;;5012214;28;20521;-71
2023/10/06 02:26:38;;;;;;;0.75;0.52;;;15.10;68.80;;;;;;5012584;28;20036;-71
2023/10/06 02:29:24;;;;;;;0.40;0.25;;;15.10;68.80;;;;;;4996095;28;20072;-70
2023/10/06 02:31:52;;;;;;;0.68;0.50;;;15.10;68.90;;;;;;5011274;28;20124;-71
2023/10/06 02:34:29;;;;;;;0.20;0.17;;;15.10;69.00;;;;;;4995588;28;20053;-71
2023/10/06 02:37:18;;;;;;;0.73;0.43;;;15.10;69.10;;;;;;4980393;28;20044;-70
2023/10/06 02:39:44;;;;;;;1.20;0.47;;;15.00;69.30;;;;;;5013124;28;20042;-71
2023/10/06 02:42:13;;;;;;;0.60;0.35;;;15.00;69.10;;;;;;5011789;28;20057;-71
2023/10/06 02:44:41;;;;;;;0.88;0.70;;;15.00;69.00;;;;;;5013164;28;20065;-70
2023/10/06 02:47:10;;;;;;;1.45;1.05;;;14.90;69.20;;;;;;5010911;28;20040;-71
2023/10/06 02:49:40;;;;;;;0.88;0.57;;;14.90;69.20;;;;;;5011446;28;20442;-70
2023/10/06 02:57:38;;;;;;;1.35;1.05;;;14.70;69.70;;;;;;4996631;28;20141;-70
2023/10/06 03:02:48;;;;;;;0.30;0.30;;;14.50;69.50;;;;;;5012608;28;20037;-71
2023/10/06 03:05:14;;;;;;;0.32;0.20;;;14.50;68.90;;;;;;5010764;28;20085;-71
2023/10/06 03:07:45;;;;;;;0.52;0.43;;;14.40;69.70;;;;;;5012201;28;20033;-71
2023/10/06 03:10:12;;;;;;;0.73;0.47;;;14.40;69.70;;;;;;5011291;28;20045;-70
2023/10/06 03:12:43;;;;;;;;;;;14.30;69.90;;;;;;5011525;28;20028;-70
2023/10/06 03:15:42;;;;;;;0.98;0.93;;;14.30;69.60;;;;;;5011853;28;19917;-71
2023/10/06 03:17:56;;;;;;;1.40;0.30;;;14.20;69.90;;;;;;5012211;28;20050;-70
2023/10/06 03:20:27;;;;;;;0.20;0.15;;;14.30;70.00;;;;;;5010974;28;20443;-70
2023/10/06 03:22:55;;;;;;;0.32;0.22;;;14.30;70.10;;;;;;5011922;28;20069;-71
2023/10/06 03:25:22;;;;;;;0.40;0.40;;;14.30;70.00;;;;;;5011799;28;20033;-71
2023/10/06 03:27:54;;;;;;;0.80;0.75;;;14.30;69.40;;;;;;5012190;28;20029;-70
2023/10/06 03:30:27;;;;;;;0.93;0.75;;;14.40;69.90;;;;;;5011243;28;20044;-71
2023/10/06 03:32:54;;;;;;;0.43;0.35;;;14.40;69.40;;;;;;5012185;28;20044;-71
2023/10/06 03:35:23;;;;;;;0.93;0.65;;;14.40;69.80;;;;;;4993996;28;20473;-70
2023/10/06 03:38:07;;;;;;;0.68;0.32;;;14.40;70.00;;;;;;5011829;28;20037;-71
2023/10/06 03:40:45;;;;;;;0.10;0.10;;;14.40;69.70;;;;;;4996051;28;20068;-70
2023/10/06 03:43:33;;;;;;;0.10;0.10;;;14.50;69.90;;;;;;4996301;28;20033;-71
2023/10/06 03:46:00;;;;;;;2.95;0.95;;;14.50;70.00;;;;;;5011479;28;20475;-70
2023/10/06 03:48:29;;;;;;;0.28;0.28;;;14.50;70.20;;;;;;4994658;28;20037;-70
2023/10/06 03:50:57;;;;;;;0.43;0.32;;;14.50;70.20;;;;;;4993207;28;20148;-71
2023/10/06 03:56:09;;;;;;;0.65;0.57;;;14.50;69.60;;;;;;5011571;28;20049;-71
2023/10/06 03:58:35;;;;;;;0.55;0.45;;;14.50;70.20;;;;;;4994210;28;20054;-70
2023/10/06 04:01:09;;;;;;;0.13;0.13;;;14.50;71.10;;;;;;5010989;28;20064;-71
2023/10/06 04:03:36;;;;;;;1.33;0.30;;;14.50;70.20;;;;;;5011968;28;20069;-71
2023/10/06 04:06:08;;;;;;;0.45;0.38;;;14.50;70.60;;;;;;4994025;28;20434;-71
2023/10/06 04:08:34;;;;;;;0.10;0.10;;;14.60;70.80;;;;;;5011725;28;20042;-71
2023/10/06 04:10:59;;;;;;;0.90;0.38;;;14.60;70.70;;;;;;4993329;28;20096;-71
2023/10/06 04:13:26;;;;;;;0.32;0.30;;;14.70;70.50;;;;;;4994151;28;20045;-70
2023/10/06 04:15:53;;;;;;;0.57;0.28;;;14.80;70.30;;;;;;4977579;28;20034;-71
2023/10/06 04:18:22;;;;;;;0.32;0.20;;;14.90;70.00;;;;;;4994377;28;20026;-71
2023/10/06 04:20:51;;;;;;;0.28;0.22;;;14.90;69.90;;;;;;4993185;28;20495;-70
2023/10/06 04:23:18;;;;;;;0.63;0.45;;;15.00;69.60;;;;;;4993910;28;20057;-71
2023/10/06 04:25:46;;;;;;;1.23;0.43;;;15.00;68.90;;;;;;4993629;28;20029;-71
2023/10/06 04:28:14;;;;;;;0.47;0.47;;;15.10;69.50;;;;;;5011530;28;20038;-70
2023/10/06 04:30:43;;;;;;;0.38;0.20;;;15.10;69.40;;;;;;4992800;28;20042;-71
2023/10/06 04:33:11;;;;;;;1.55;1.00;;;15.10;69.40;;;;;;4995074;28;20120;-70
2023/10/06 04:35:47;;;;;;;0.30;0.20;;;15.10;69.30;;;;;;4997158;28;20029;-71
2023/10/06 04:38:14;;;;;;;0.55;0.55;;;15.20;69.30;;;;;;4998952;28;20049;-71
2023/10/06 04:40:58;;;;;;;2.75;0.30;;;15.20;69.20;;;;;;4980165;28;20109;-70
2023/10/06 04:43:26;;;;;;;1.25;0.30;;;15.20;69.50;;;;;;4997554;28;20445;-71
2023/10/06 04:45:52;;;;;;;0.40;0.20;;;15.10;69.30;;;;;;4997136;28;20109;-71
2023/10/06 04:48:21;;;;;;;3.20;1.85;;;15.10;69.50;;;;;;5015022;28;20045;-71
2023/10/06 04:50:51;;;;;;;2.95;0.73;;;15.10;69.50;;;;;;5013899;28;20042;-71
2023/10/06 04:53:17;;;;;;;0.30;0.20;;;15.10;69.50;;;;;;4997676;28;20541;-71
2023/10/06 04:55:44;;;;;;;0.82;0.77;;;15.10;69.60;;;;;;4996793;28;20030;-70
2023/10/06 05:01:00;;;;;;;0.32;0.30;;;14.90;69.60;;;;;;4998879;28;20406;-71
2023/10/06 05:03:27;;;;;;;0.77;0.75;;;14.80;69.50;;;;;;4981262;28;20064;-72
2023/10/06 05:05:56;;;;;;;1.52;0.88;;;14.70;69.60;;;;;;5014297;28;20025;-71
2023/10/06 05:08:24;;;;;;;0.22;0.22;;;14.60;69.70;;;;;;4997699;28;20586;-71
2023/10/06 05:10:52;;;;;;;0.50;0.30;;;14.50;69.90;;;;;;5013551;28;20076;-70
2023/10/06 05:13:19;;;;;;;1.08;0.47;;;14.50;69.80;;;;;;4996969;28;20054;-71
2023/10/06 05:15:45;;;;;;;2.20;0.50;;;14.40;69.90;;;;;;4996513;28;20069;-72
2023/10/06 05:18:15;;;;;;;0.30;0.20;;;14.30;70.00;;;;;;5014574;28;20038;-71
2023/10/06 05:20:42;;;;;;;0.10;0.10;;;14.30;69.90;;;;;;5013369;28;20077;-70
2023/10/06 05:23:14;;;;;;;0.43;0.43;;;14.20;69.50;;;;;;4996962;28;20058;-71
2023/10/06 05:25:42;;;;;;;0.70;0.70;;;14.10;70.30;;;;;;4997159;28;20394;-70
2023/10/06 05:28:10;;;;;;;0.50;0.50;;;14.00;70.00;;;;;;5014200;28;20034;-70
2023/10/06 05:30:38;;;;;;;0.10;0.10;;;14.00;69.50;;;;;;4995913;28;20442;-71
2023/10/06 05:33:05;;;;;;;0.10;0.10;;;13.90;70.00;;;;;;4996461;28;20129;-70
2023/10/06 05:35:51;;;;;;;0.40;0.32;;;13.90;70.10;;;;;;4996183;28;20026;-71
2023/10/06 05:38:19;;;;;;;1.27;0.30;;;13.80;70.30;;;;;;4996971;28;20033;-71
2023/10/06 05:40:46;;;;;;;0.80;0.52;;;13.80;70.30;;;;;;4995619;28;20099;-70
2023/10/06 05:43:13;;;;;;;0.52;0.30;;;13.80;70.40;;;;;;4996470;28;20092;-70
2023/10/06 05:45:39;;;;;;;;;;;13.80;70.40;;;;;;5013506;28;20229;-71
2023/10/06 05:48:10;;;;;;;0.32;0.30;;;13.70;70.20;;;;;;4996327;28;20371;-70
2023/10/06 05:50:37;;;;;;;0.38;0.22;;;13.70;70.40;;;;;;4995458;28;20033;-71
2023/10/06 05:53:05;;;;;;;0.65;0.45;;;13.70;70.70;;;;;;4996174;28;20052;-72
2023/10/06 05:55:34;;;;;;;1.88;1.27;;;13.70;70.70;;;;;;4995848;28;20036;-71
2023/10/06 05:58:03;;;;;;;1.55;0.80;;;13.70;70.90;;;;;;4980290;28;20060;-71
2023/10/06 06:00:30;;;;;;;0.20;0.20;;;13.70;70.80;;;;;;4979105;28;20403;-71
2023/10/06 06:02:59;;;;;;;1.10;0.55;;;13.80;70.70;;;;;;4979646;28;20072;-70
2023/10/06 06:05:38;;;;;;;1.17;0.57;;;13.80;70.80;;;;;;4995517;28;20077;-71
2023/10/06 06:08:18;;;;;;;0.30;0.30;;;13.80;71.00;;;;;;5013454;28;20096;-72
2023/10/06 06:10:45;;;;;;;0.82;0.50;;;13.80;71.00;;;;;;4994911;28;20042;-71
2023/10/06 06:13:14;;;;;;;0.45;0.40;;;13.80;71.30;;;;;;4996099;28;20069;-71
2023/10/06 06:15:41;;;;;;;0.20;0.20;;;13.80;71.40;;;;;;4979526;28;20487;-71
2023/10/06 06:18:08;;;;;;;1.08;0.85;;;13.80;71.80;;;;;;5013322;28;20108;-71
2023/10/06 06:20:41;;;;;;;0.30;0.30;;;13.80;71.60;;;;;;4995041;28;20372;-71
2023/10/06 06:23:25;;;;;;;2.15;0.98;;;13.90;71.60;;;;;;4996117;28;20050;-71
2023/10/06 06:25:51;;;;;;;2.22;0.65;;;13.90;71.60;;;;;;5012851;28;20026;-70
2023/10/06 06:28:17;;;;;;;0.65;0.43;;;14.10;71.60;;;;;;5011783;28;20511;-70
2023/10/06 06:30:47;;;;;;;0.73;0.55;;;14.10;71.50;;;;;;4994674;28;20076;-70
2023/10/06 06:33:17;;;;;;;0.82;0.60;;;14.20;71.60;;;;;;4995472;28;20483;-70
2023/10/06 06:35:44;;;;;;;0.47;0.32;;;14.20;71.50;;;;;;5027552;28;20038;-70
2023/10/06 06:38:12;;;;;;;4.13;0.98;;;14.30;71.00;;;;;;5032654;28;20215;-71
2023/10/06 06:40:38;;;;;;;1.00;0.90;;;14.30;71.60;;;;;;4997832;28;20042;-70
2023/10/06 06:43:11;;;;;;;1.48;1.13;;;14.40;71.40;;;;;;5014933;28;20116;-71
2023/10/06 06:45:41;;;;;;;0.82;0.70;;;14.50;71.40;;;;;;5015062;28;20041;-70
2023/10/06 06:48:26;;;;;;;1.70;1.10;;;14.50;71.50;;;;;;5015390;28;20041;-71
2023/10/06 06:50:52;;;;;;;1.50;0.63;;;14.60;71.80;;;;;;5013751;28;20041;-70
2023/10/06 06:53:18;;;;;;;1.80;1.10;;;14.60;71.70;;;;;;5032434;28;20041;-71
2023/10/06 06:55:45;;;;;;;0.40;0.40;;;14.70;71.90;;;;;;5031601;28;20045;-70
2023/10/06 06:58:16;;;;;;;1.13;0.32;;;14.70;71.10;;;;;;5014686;28;20125;-71
2023/10/06 07:00:42;;;;;;;0.63;0.50;;;14.80;72.10;;;;;;5031351;28;20079;-70
2023/10/06 07:03:08;;;;;;;0.98;0.82;;;14.90;72.30;;;;;;5032335;28;20053;-71
2023/10/06 07:05:36;;;;;;;0.35;0.35;;;15.00;71.80;;;;;;5014303;28;20034;-71
2023/10/06 07:08:04;;;;;;;2.03;1.05;;;15.10;71.80;;;;;;5014637;28;20053;-70
2023/10/06 07:10:31;;;;;;;0.75;0.60;;;15.10;71.80;;;;;;5031157;28;20524;-72
2023/10/06 07:12:58;;;;;;;2.33;0.40;;;15.20;71.10;;;;;;5030897;28;20037;-71
2023/10/06 07:15:29;;;;;;;1.10;0.55;;;15.40;71.90;;;;;;4997118;28;20037;-71
2023/10/06 07:17:57;;;;;;;0.65;0.50;;;15.40;71.40;;;;;;5013837;28;20540;-71
2023/10/06 07:20:44;;;;;;;1.88;1.00;;;15.50;71.20;;;;;;5013248;28;20048;-71
2023/10/06 07:23:11;;;;;;;0.93;0.63;;;15.60;70.80;;;;;;5040571;28;20557;-70
2023/10/06 07:25:37;;;;;;;0.10;0.10;;;15.80;70.40;;;;;;5033505;28;20060;-71
2023/10/06 07:28:05;;;;;;;;;;;15.90;70.80;;;;;;5034418;28;20052;-71
2023/10/06 07:30:34;;;;;;;2.00;1.08;;;16.00;70.00;;;;;;5050543;28;19982;-71
2023/10/06 07:33:03;;;;;;;1.25;0.55;;;16.10;70.70;;;;;;5050436;28;20044;-71
2023/10/06 07:35:43;;;;;;;1.38;1.20;;;16.20;70.20;;;;;;5051049;28;20025;-71
2023/10/06 07:38:13;;;;;;;1.23;0.55;;;16.40;70.10;;;;;;5052122;28;20484;-71
2023/10/06 07:40:42;;;;;;;0.88;0.50;;;16.50;69.80;;;;;;5033541;28;20033;-71
2023/10/06 07:43:09;;;;;;;1.05;0.63;;;16.60;69.10;;;;;;5033822;28;20052;-71
2023/10/06 07:45:36;;;;;;;1.20;0.88;;;16.80;68.60;;;;;;5049587;28;20029;-71
2023/10/06 07:48:07;;;;;;;2.65;1.05;;;17.50;66.80;;;;;;5032876;28;20039;-71
2023/10/06 07:50:34;;;;;;;2.35;1.95;;;19.10;62.10;;;;;;5039196;28;20110;-71
2023/10/06 07:53:01;;;;;;;0.80;0.30;;;20.70;59.00;;;;;;5053240;28;20029;-71
2023/10/06 07:55:28;;;;;;;3.03;0.88;;;21.80;53.40;;;;;;5053044;28;20031;-71
2023/10/06 07:57:54;;;;;;;0.60;0.43;;;22.80;51.10;;;;;;5054014;28;20128;-71
2023/10/06 08:00:28;;;;;;;0.60;0.47;;;23.70;48.20;;;;;;5069479;28;20035;-71
2023/10/06 08:02:55;;;;;;;0.35;0.35;;;24.60;43.20;;;;;;5032134;28;20026;-71
2023/10/06 08:05:23;;;;;;;1.40;0.95;;;25.50;43.80;;;;;;5032913;28;20417;-71
2023/10/06 08:07:49;;;;;;;0.70;0.65;;;26.40;42.10;;;;;;5035716;28;20132;-71
2023/10/06 08:10:18;;;;;;;0.50;0.50;;;27.30;39.90;;;;;;5040814;28;20025;-71
2023/10/06 08:12:46;;;;;;;1.60;0.40;;;27.90;38.00;;;;;;5057717;28;20046;-71
2023/10/06 08:15:17;;;;;;;0.20;0.20;;;28.70;35.10;;;;;;5056549;28;20035;-72
2023/10/06 08:18:02;;;;;;;1.73;0.93;;;29.40;34.50;;;;;;5057833;28;20051;-72
2023/10/06 08:20:29;;;;;;;1.33;0.85;;;30.00;31.50;;;;;;5073142;28;20044;-71
2023/10/06 08:22:57;;;;;;;1.08;0.68;;;30.80;29.90;;;;;;5074951;28;20121;-71
2023/10/06 08:25:24;;;;;;;0.55;0.40;;;31.40;28.70;;;;;;5056986;28;20028;-72
2023/10/06 08:27:51;;;;;;;0.63;0.63;;;31.90;27.40;;;;;;5074981;28;20036;-71
2023/10/06 08:30:21;;;;;;;0.75;0.63;;;32.50;26.40;;;;;;5056080;28;20037;-71
2023/10/06 08:32:54;;;;;;;0.30;0.30;;;33.00;23.90;;;;;;5075121;28;20060;-71
2023/10/06 08:35:21;;;;;;;0.43;0.43;;;33.20;23.70;;;;;;5056962;28;20028;-71
2023/10/06 08:37:56;;;;;;;0.73;0.70;;;33.70;23.50;;;;;;5056928;28;20062;-71
2023/10/06 08:40:26;;;;;;;0.50;0.47;;;34.30;23.00;;;;;;5056703;28;20366;-71
2023/10/06 08:42:57;;;;;;;0.40;0.38;;;35.00;22.50;;;;;;5074806;28;20064;-72
2023/10/06 08:45:26;;;;;;;0.95;0.57;;;35.50;21.10;;;;;;5056470;28;20048;-71
2023/10/06 08:48:12;;;;;;;0.40;0.40;;;35.70;20.30;;;;;;5074721;28;20499;-71
2023/10/06 08:50:41;;;;;;;0.43;0.43;;;36.10;20.10;;;;;;5055654;28;20040;-72
2023/10/06 08:53:09;;;;;;;1.60;1.20;;;36.60;19.60;;;;;;5040157;28;20033;-72
2023/10/06 08:55:38;;;;;;;0.63;0.63;;;36.80;18.80;;;;;;5056746;28;20052;-72
2023/10/06 08:58:04;;;;;;;1.15;1.08;;;37.20;19.00;;;;;;5056866;28;20075;-73
2023/10/06 09:00:34;;;;;;;1.17;0.80;;;37.60;18.30;;;;;;5055425;28;20159;-71
2023/10/06 09:03:11;;;;;;;1.40;0.82;;;37.80;17.80;;;;;;5056684;28;20051;-72
2023/10/06 09:05:55;;;;;;;0.63;0.63;;;38.30;17.60;;;;;;5055861;28;20039;-71
2023/10/06 09:08:21;;;;;;;1.27;1.15;;;38.50;16.80;;;;;;5074147;28;20040;-72
2023/10/06 09:10:52;;;;;;;1.73;1.40;;;38.80;16.40;;;;;;5033731;28;20934;-72
2023/10/06 09:13:20;;;;;;;0.77;0.52;;;39.30;16.20;;;;;;5036316;28;20045;-72
2023/10/06 09:25:10;;;;;;;0.52;0.50;;;35.60;19.00;;;;;;5039318;28;20048;-72
2023/10/06 09:27:37;;;;;;;1.13;1.00;;;33.80;19.90;;;;;;5052570;28;20405;-72
2023/10/06 09:30:11;;;;;;;1.25;0.85;;;32.80;21.00;;;;;;5053060;28;20068;-72
2023/10/06 09:32:39;;;;;;;0.82;0.80;;;31.90;21.70;;;;;;5052481;28;20029;-72
2023/10/06 09:35:25;;;;;;;1.27;0.85;;;31.20;23.00;;;;;;5035939;28;20100;-72
2023/10/06 09:37:51;;;;;;;0.80;0.80;;;30.70;23.80;;;;;;5053717;28;20040;-72
2023/10/06 09:43:04;;;;;;;1.80;1.15;;;29.70;24.70;;;;;;5053746;28;20040;-71
2023/10/06 09:45:30;;;;;;;0.63;0.50;;;28.90;24.60;;;;;;5035410;28;20033;-71
2023/10/06 09:47:59;;;;;;;0.93;0.70;;;28.40;25.60;;;;;;5053632;28;20052;-72
2023/10/06 09:50:26;;;;;;;0.55;0.55;;;28.10;26.30;;;;;;5034453;28;20537;-71
2023/10/06 09:52:52;;;;;;;1.55;0.95;;;27.80;26.40;;;;;;5019210;28;20071;-71
2023/10/06 09:55:21;;;;;;;0.35;0.35;;;27.60;27.10;;;;;;5035090;28;20025;-71
2023/10/06 09:57:50;;;;;;;1.33;0.93;;;27.20;27.60;;;;;;5035760;28;20039;-71
2023/10/06 10:00:19;;;;;;;0.75;0.50;;;27.10;28.30;;;;;;5052443;28;20032;-72
2023/10/06 10:02:47;;;;;;;0.32;0.30;;;26.70;28.70;;;;;;5035447;28;20063;-71
2023/10/06 10:05:35;;;;;;;1.05;0.82;;;26.70;29.10;;;;;;5052714;28;20079;-72
2023/10/06 10:08:02;;;;;;;1.30;0.73;;;26.30;28.80;;;;;;5018939;28;20536;-71
2023/10/06 10:10:28;;;;;;;0.82;0.57;;;26.10;29.20;;;;;;5034625;28;20394;-71
2023/10/06 10:13:51;;;;;;;0.20;0.20;;;25.90;29.40;;;;;;5035470;28;20049;-71
2023/10/06 10:16:36;;;;;;;0.65;0.60;;;25.70;29.50;;;;;;5034546;28;20101;-71
2023/10/06 10:19:07;;;;;;;2.22;0.95;;;25.60;29.70;;;;;;5035565;28;20485;-71
2023/10/06 10:21:36;;;;;;;0.80;0.65;;;25.50;30.10;;;;;;5034415;28;20428;-71
2023/10/06 10:24:09;;;;;;;1.33;1.23;;;25.50;30.40;;;;;;5035314;28;20509;-71
2023/10/06 10:26:41;;;;;;;1.08;0.90;;;25.60;29.90;;;;;;5034861;28;20040;-71
2023/10/06 10:29:25;;;;;;;0.75;0.70;;;25.50;30.00;;;;;;5052942;28;20446;-71
2023/10/06 10:31:56;;;;;;;1.10;0.80;;;25.50;30.20;;;;;;5051886;28;20042;-71
2023/10/06 10:34:25;;;;;;;0.63;0.63;;;25.30;30.10;;;;;;5018704;28;20400;-71
2023/10/06 10:37:12;;;;;;;1.58;0.60;;;25.30;30.50;;;;;;5018162;28;20041;-71
2023/10/06 10:39:57;;;;;;;0.20;0.20;;;25.30;30.00;;;;;;5034862;28;20076;-71
2023/10/06 10:42:38;;;;;;;1.58;0.88;;;25.20;30.30;;;;;;5033780;28;20216;-71
2023/10/06 10:48:36;;;;;;;1.65;0.70;;;25.00;30.90;;;;;;5037682;28;20516;-70
2023/10/06 10:51:10;;;;;;;0.30;0.30;;;25.20;30.60;;;;;;5034142;28;20041;-71
2023/10/06 10:53:42;;;;;;;0.50;0.35;;;25.20;30.60;;;;;;5052578;28;20120;-71
2023/10/06 10:56:53;;;;;;;1.27;0.57;;;25.20;30.30;;;;;;5051851;28;20100;-71
2023/10/06 10:59:21;;;;;;;1.45;0.77;;;25.40;30.00;;;;;;5052580;28;20064;-71
2023/10/06 11:02:08;;;;;;;0.50;0.50;;;25.40;30.00;;;;;;5051131;28;20041;-71
2023/10/06 11:04:35;;;;;;;0.85;0.38;;;25.30;30.00;;;;;;5018148;28;20036;-71
2023/10/06 11:07:20;;;;;;;2.47;0.93;;;25.20;29.00;;;;;;5033934;28;20037;-71
2023/10/06 11:09:52;;;;;;;1.17;0.65;;;24.90;29.60;;;;;;5034336;28;20044;-71
2023/10/06 11:12:28;;;;;;;2.30;0.50;;;24.90;30.20;;;;;;5034614;28;20367;-71
2023/10/06 11:15:03;;;;;;;0.30;0.30;;;24.90;29.90;;;;;;5034697;28;20041;-72
2023/10/06 11:17:30;;;;;;;0.35;0.35;;;24.90;30.40;;;;;;5018398;28;20045;-72
2023/10/06 11:23:01;;;;;;;0.98;0.70;;;26.10;28.90;;;;;;5031112;28;20131;-72
2023/10/06 11:25:49;;;;;;;1.23;0.55;;;26.60;27.80;;;;;;4997381;28;20030;-71
2023/10/06 11:28:15;;;;;;;1.98;1.35;;;26.60;28.40;;;;;;5014179;28;20494;-71
2023/10/06 11:30:43;;;;;;;0.95;0.75;;;27.10;27.90;;;;;;5013194;28;20124;-71
2023/10/06 11:33:11;;;;;;;1.88;0.17;;;27.20;26.90;;;;;;5014318;28;20064;-71
2023/10/06 11:35:41;;;;;;;1.40;1.30;;;26.70;27.10;;;;;;5031763;28;20459;-72
2023/10/06 11:38:11;;;;;;;0.32;0.32;;;26.20;26.80;;;;;;4997688;28;20507;-71
2023/10/06 11:40:38;;;;;;;0.20;0.20;;;25.90;28.10;;;;;;5013171;28;20045;-72
2023/10/06 11:43:23;;;;;;;0.35;0.28;;;25.70;29.00;;;;;;5018915;28;20108;-72
2023/10/06 11:46:07;;;;;;;0.55;0.40;;;25.70;29.70;;;;;;5020277;28;20029;-71
2023/10/06 11:48:34;;;;;;;0.52;0.30;;;25.70;29.80;;;;;;5021945;28;20044;-71
2023/10/06 11:51:19;;;;;;;1.35;0.88;;;26.00;29.70;;;;;;5019772;28;20041;-71
2023/10/06 11:53:45;;;;;;;0.82;0.40;;;27.80;26.90;;;;;;5038720;28;20068;-71
2023/10/06 11:56:13;;;;;;;0.65;0.50;;;27.80;26.20;;;;;;5030411;28;20504;-72
2023/10/06 11:58:41;;;;;;;0.70;0.60;;;28.00;26.80;;;;;;5040455;28;20041;-71
2023/10/06 12:01:32;;;;;;;5.68;0.80;;;29.30;26.00;;;;;;5039346;28;20056;-72
2023/10/06 12:04:04;;;;;;;2.15;0.45;;;29.10;25.90;;;;;;5040269;28;20533;-71
2023/10/06 12:06:51;;;;;;;0.63;0.60;;;28.50;25.50;;;;;;5023937;28;20056;-71
2023/10/06 12:09:36;;;;;;;0.20;0.20;;;29.30;25.60;;;;;;5058417;28;20037;-72
2023/10/06 12:12:02;;;;;;;0.35;0.30;;;29.20;26.10;;;;;;5039398;28;20037;-71
2023/10/06 12:14:30;;;;;;;1.02;0.43;;;28.80;26.40;;;;;;5040216;28;20037;-71
2023/10/06 12:16:56;;;;;;;2.08;0.50;;;28.60;26.00;;;;;;5039884;28;20078;-71
2023/10/06 12:19:25;;;;;;;0.80;0.75;;;28.60;26.60;;;;;;5058463;28;20041;-71
2023/10/06 12:21:51;;;;;;;0.85;0.45;;;28.30;27.20;;;;;;5057130;28;20037;-72
2023/10/06 12:24:17;;;;;;;1.10;1.00;;;28.20;28.20;;;;;;5040143;28;20064;-71
2023/10/06 12:26:46;;;;;;;0.40;0.40;;;28.10;27.90;;;;;;5039657;28;20503;-72
2023/10/06 12:29:16;;;;;;;0.57;0.57;;;28.10;28.50;;;;;;5040278;28;20041;-71
2023/10/06 12:31:45;;;;;;;0.32;0.32;;;28.10;26.20;;;;;;5039803;28;20045;-71
2023/10/06 12:34:15;;;;;;;0.77;0.52;;;28.00;25.80;;;;;;5058208;28;20033;-71
2023/10/06 12:37:03;;;;;;;0.30;0.30;;;27.90;26.70;;;;;;5040157;28;20068;-72
2023/10/06 12:42:16;;;;;;;1.10;0.73;;;27.90;27.00;;;;;;5057037;28;20143;-71
2023/10/06 12:44:42;;;;;;;0.20;0.20;;;27.80;27.50;;;;;;5058077;28;20029;-71
2023/10/06 12:49:58;;;;;;;0.40;0.40;;;27.70;27.70;;;;;;5058245;28;20124;-72
2023/10/06 12:52:24;;;;;;;0.95;0.80;;;28.30;27.70;;;;;;5039719;28;20399;-72
2023/10/06 12:54:51;;;;;;;0.30;0.30;;;30.60;23.70;;;;;;5054037;28;20167;-72
2023/10/06 12:57:18;;;;;;;0.90;0.57;;;30.50;23.80;;;;;;5054178;28;20401;-72
2023/10/06 12:59:44;;;;;;;1.65;1.42;;;30.30;24.30;;;;;;5036851;28;20032;-71
2023/10/06 13:02:10;;;;;;;1.13;0.70;;;29.60;25.90;;;;;;5053518;28;20041;-71
2023/10/06 13:04:36;;;;;;;1.27;0.77;;;29.20;27.60;;;;;;5054877;28;20083;-72
2023/10/06 13:07:04;;;;;;;1.58;1.05;;;30.60;24.70;;;;;;5053920;28;20478;-72
2023/10/06 13:09:34;;;;;;;2.08;0.80;;;33.70;22.80;;;;;;5054511;28;20033;-73
2023/10/06 13:12:00;;;;;;;1.15;0.70;;;36.00;18.30;;;;;;5053350;28;20037;-71
2023/10/06 13:14:28;;;;;;;0.38;0.30;;;37.60;17.50;;;;;;5053509;28;20037;-72
2023/10/06 13:16:54;;;;;;;0.30;0.30;;;38.80;16.10;;;;;;5035641;28;20021;-72
2023/10/06 13:19:20;;;;;;;0.20;0.20;;;40.00;15.70;;;;;;5036316;28;20048;-71
2023/10/06 13:21:46;;;;;;;0.30;0.30;;;41.00;15.30;;;;;;5018645;28;20045;-72
2023/10/06 13:24:13;;;;;;;0.95;0.70;;;41.50;14.40;;;;;;5019790;28;20061;-72
2023/10/06 13:26:42;;;;;;;1.02;0.75;;;42.10;14.00;;;;;;5019011;28;20455;-72
2023/10/06 13:29:08;;;;;;;1.25;1.00;;;42.60;12.90;;;;;;5036724;28;20033;-73
2023/10/06 13:31:35;;;;;;;1.20;0.93;;;43.30;13.10;;;;;;5035081;28;20048;-73
2023/10/06 13:34:01;;;;;;;2.20;1.75;;;43.80;13.20;;;;;;5050570;28;20041;-72
2023/10/06 13:36:28;;;;;;;4.40;1.30;;;44.60;13.40;;;;;;5020805;28;20021;-72
2023/10/06 13:38:55;;;;;;;1.15;0.98;;;45.00;13.10;;;;;;5053621;28;20033;-72
2023/10/06 13:41:22;;;;;;;0.57;0.57;;;45.30;12.20;;;;;;5052631;28;20052;-72
2023/10/06 13:43:49;;;;;;;1.05;0.80;;;45.50;11.70;;;;;;5029830;28;20087;-72
2023/10/06 13:46:17;;;;;;;1.58;0.93;;;45.70;12.10;;;;;;5039620;28;20052;-72
2023/10/06 13:48:43;;;;;;;0.60;0.60;;;46.00;12.30;;;;;;5016507;28;20038;-73
2023/10/06 13:51:09;;;;;;;1.52;1.17;;;46.30;11.80;;;;;;5052496;28;20040;-73
2023/10/06 13:53:37;;;;;;;1.30;1.17;;;46.30;12.20;;;;;;5034153;28;20040;-73
2023/10/06 13:56:04;;;;;;;2.08;0.98;;;46.20;11.10;;;;;;5048082;28;20021;-72
2023/10/06 13:58:30;;;;;;;1.23;0.95;;;46.00;11.10;;;;;;5052717;28;20036;-73
2023/10/06 14:00:58;;;;;;;0.70;0.60;;;46.10;10.80;;;;;;5032929;28;20063;-72
2023/10/06 14:03:24;;;;;;;0.65;0.65;;;45.60;9.90;;;;;;5019029;28;20047;-73
2023/10/06 14:08:35;;;;;;;1.17;1.00;;;45.60;11.30;;;;;;5037126;28;20133;-72